sensor_id;sensor_type;location;lat;lon;timestamp;pressure;altitude;pressure_sealevel;temperature;humidity
42519;BME280;28147;47.520;18.920;2023-04-23T00:01:17;98233.72;;;15.32;43.95
42519;BME280;28147;47.520;18.920;2023-04-23T00:03:43;98234.53;;;15.43;43.60
42519;BME280;28147;47.520;18.920;2023-04-23T00:06:09;98235.06;;;15.29;43.41
42519;BME280;28147;47.520;18.920;2023-04-23T00:08:40;98240.97;;;15.37;43.40
42519;BME280;28147;47.520;18.920;2023-04-23T00:11:06;98231.59;;;15.39;43.72
42519;BME280;28147;47.520;18.920;2023-04-23T00:13:32;98239.38;;;15.36;43.45
42519;BME280;28147;47.520;18.920;2023-04-23T00:15:58;98232.38;;;15.45;43.22
42519;BME280;28147;47.520;18.920;2023-04-23T00:18:24;98236.66;;;15.25;43.86
42519;BME280;28147;47.520;18.920;2023-04-23T00:20:49;98220.84;;;15.44;43.49
42519;BME280;28147;47.520;18.920;2023-04-23T00:23:15;98225.94;;;15.36;43.07
42519;BME280;28147;47.520;18.920;2023-04-23T00:25:40;98231.31;;;15.30;43.67
42519;BME280;28147;47.520;18.920;2023-04-23T00:28:05;98225.41;;;15.28;43.36
42519;BME280;28147;47.520;18.920;2023-04-23T00:30:31;98223.81;;;15.27;43.13
42519;BME280;28147;47.520;18.920;2023-04-23T00:32:56;98220.84;;;15.54;43.26
42519;BME280;28147;47.520;18.920;2023-04-23T00:35:22;98221.09;;;15.38;42.22
42519;BME280;28147;47.520;18.920;2023-04-23T00:37:47;98218.97;;;15.55;42.09
42519;BME280;28147;47.520;18.920;2023-04-23T00:40:13;98212.00;;;15.44;43.27
42519;BME280;28147;47.520;18.920;2023-04-23T00:42:39;98223.25;;;15.25;43.55
42519;BME280;28147;47.520;18.920;2023-04-23T00:45:06;98215.75;;;15.43;43.47
42519;BME280;28147;47.520;18.920;2023-04-23T00:47:33;98220.84;;;15.19;43.96
42519;BME280;28147;47.520;18.920;2023-04-23T00:49:59;98222.47;;;15.20;44.09
42519;BME280;28147;47.520;18.920;2023-04-23T00:52:24;98217.88;;;15.10;43.66
42519;BME280;28147;47.520;18.920;2023-04-23T00:54:50;98225.94;;;15.15;43.65
42519;BME280;28147;47.520;18.920;2023-04-23T00:57:16;98217.91;;;15.25;43.93
42519;BME280;28147;47.520;18.920;2023-04-23T00:59:42;98208.53;;;15.13;43.95
42519;BME280;28147;47.520;18.920;2023-04-23T01:02:08;98206.63;;;14.98;44.34
42519;BME280;28147;47.520;18.920;2023-04-23T01:04:34;98214.66;;;14.88;44.88
42519;BME280;28147;47.520;18.920;2023-04-23T01:07:01;98210.94;;;15.19;42.34
42519;BME280;28147;47.520;18.920;2023-04-23T01:09:27;98209.84;;;15.05;44.06
42519;BME280;28147;47.520;18.920;2023-04-23T01:11:53;98212.25;;;15.06;43.95
42519;BME280;28147;47.520;18.920;2023-04-23T01:14:19;98209.06;;;15.04;44.33
42519;BME280;28147;47.520;18.920;2023-04-23T01:16:44;98209.31;;;14.93;44.75
42519;BME280;28147;47.520;18.920;2023-04-23T01:19:11;98208.78;;;15.11;44.44
42519;BME280;28147;47.520;18.920;2023-04-23T01:21:38;98210.13;;;15.14;44.25
42519;BME280;28147;47.520;18.920;2023-04-23T01:24:08;98212.00;;;14.93;44.44
42519;BME280;28147;47.520;18.920;2023-04-23T01:26:34;98206.09;;;15.21;43.93
42519;BME280;28147;47.520;18.920;2023-04-23T01:29:00;98213.63;;;15.04;44.42
42519;BME280;28147;47.520;18.920;2023-04-23T01:31:29;98214.69;;;14.93;44.58
42519;BME280;28147;47.520;18.920;2023-04-23T01:33:55;98206.63;;;15.03;44.47
42519;BME280;28147;47.520;18.920;2023-04-23T01:36:22;98210.09;;;15.03;43.39
42519;BME280;28147;47.520;18.920;2023-04-23T01:38:48;98206.88;;;14.91;43.97
42519;BME280;28147;47.520;18.920;2023-04-23T01:41:14;98206.06;;;14.70;44.61
42519;BME280;28147;47.520;18.920;2023-04-23T01:43:43;98205.50;;;14.63;45.32
42519;BME280;28147;47.520;18.920;2023-04-23T01:46:08;98206.84;;;14.76;44.92
42519;BME280;28147;47.520;18.920;2023-04-23T01:48:35;98211.13;;;14.67;45.01
42519;BME280;28147;47.520;18.920;2023-04-23T01:51:01;98194.25;;;14.76;44.84
42519;BME280;28147;47.520;18.920;2023-04-23T01:53:26;98209.28;;;14.82;44.77
42519;BME280;28147;47.520;18.920;2023-04-23T01:55:53;98200.16;;;14.83;44.76
42519;BME280;28147;47.520;18.920;2023-04-23T01:58:19;98194.56;;;14.90;44.11
42519;BME280;28147;47.520;18.920;2023-04-23T02:00:45;98194.03;;;14.98;44.06
42519;BME280;28147;47.520;18.920;2023-04-23T02:03:10;98196.72;;;14.93;43.90
42519;BME280;28147;47.520;18.920;2023-04-23T02:05:37;98196.41;;;14.84;43.56
42519;BME280;28147;47.520;18.920;2023-04-23T02:08:04;98193.47;;;14.76;44.54
42519;BME280;28147;47.520;18.920;2023-04-23T02:10:30;98196.69;;;14.83;44.39
42519;BME280;28147;47.520;18.920;2023-04-23T02:12:57;98196.69;;;14.78;43.99
42519;BME280;28147;47.520;18.920;2023-04-23T02:15:23;98188.09;;;14.81;44.18
42519;BME280;28147;47.520;18.920;2023-04-23T02:17:48;98187.88;;;14.93;44.42
42519;BME280;28147;47.520;18.920;2023-04-23T02:20:18;98184.63;;;15.11;43.19
42519;BME280;28147;47.520;18.920;2023-04-23T02:22:45;98186.25;;;14.92;44.26
42519;BME280;28147;47.520;18.920;2023-04-23T02:25:11;98183.56;;;14.81;44.36
42519;BME280;28147;47.520;18.920;2023-04-23T02:27:40;98195.34;;;14.75;44.85
42519;BME280;28147;47.520;18.920;2023-04-23T02:30:06;98189.44;;;14.83;44.45
42519;BME280;28147;47.520;18.920;2023-04-23T02:32:33;98183.00;;;14.84;43.94
42519;BME280;28147;47.520;18.920;2023-04-23T02:34:58;98184.09;;;14.94;44.29
42519;BME280;28147;47.520;18.920;2023-04-23T02:37:26;98188.13;;;14.96;44.21
42519;BME280;28147;47.520;18.920;2023-04-23T02:39:51;98180.34;;;14.84;44.14
42519;BME280;28147;47.520;18.920;2023-04-23T02:42:17;98181.41;;;14.78;44.52
42519;BME280;28147;47.520;18.920;2023-04-23T02:44:42;98179.25;;;14.80;44.05
42519;BME280;28147;47.520;18.920;2023-04-23T02:47:07;98174.97;;;14.79;43.83
42519;BME280;28147;47.520;18.920;2023-04-23T02:49:33;98174.97;;;14.74;44.44
42519;BME280;28147;47.520;18.920;2023-04-23T02:51:58;98179.50;;;14.58;44.66
42519;BME280;28147;47.520;18.920;2023-04-23T02:54:24;98178.88;;;14.46;45.16
42519;BME280;28147;47.520;18.920;2023-04-23T02:56:49;98174.81;;;14.23;45.78
42519;BME280;28147;47.520;18.920;2023-04-23T02:59:15;98175.91;;;14.32;45.75
42519;BME280;28147;47.520;18.920;2023-04-23T03:01:41;98175.47;;;14.51;45.45
42519;BME280;28147;47.520;18.920;2023-04-23T03:04:06;98175.19;;;14.57;45.71
42519;BME280;28147;47.520;18.920;2023-04-23T03:06:31;98172.53;;;14.52;45.48
42519;BME280;28147;47.520;18.920;2023-04-23T03:08:58;98170.00;;;14.35;45.77
42519;BME280;28147;47.520;18.920;2023-04-23T03:11:24;98174.00;;;14.28;46.04
42519;BME280;28147;47.520;18.920;2023-04-23T03:13:49;98173.47;;;14.26;46.42
42519;BME280;28147;47.520;18.920;2023-04-23T03:16:15;98171.59;;;14.26;45.83
42519;BME280;28147;47.520;18.920;2023-04-23T03:18:40;98172.13;;;14.23;46.24
42519;BME280;28147;47.520;18.920;2023-04-23T03:21:06;98171.13;;;14.40;46.24
42519;BME280;28147;47.520;18.920;2023-04-23T03:23:31;98166.78;;;14.23;46.24
42519;BME280;28147;47.520;18.920;2023-04-23T03:25:57;98175.91;;;14.32;46.08
42519;BME280;28147;47.520;18.920;2023-04-23T03:28:22;98171.09;;;14.29;46.09
42519;BME280;28147;47.520;18.920;2023-04-23T03:30:48;98174.84;;;14.33;45.98
42519;BME280;28147;47.520;18.920;2023-04-23T03:33:14;98174.78;;;14.18;46.12
42519;BME280;28147;47.520;18.920;2023-04-23T03:35:39;98171.09;;;14.34;46.38
42519;BME280;28147;47.520;18.920;2023-04-23T03:38:05;98170.84;;;14.41;45.83
42519;BME280;28147;47.520;18.920;2023-04-23T03:40:30;98167.09;;;14.42;45.54
42519;BME280;28147;47.520;18.920;2023-04-23T03:42:55;98178.00;;;14.15;45.89
42519;BME280;28147;47.520;18.920;2023-04-23T03:45:22;98178.59;;;14.38;45.83
42519;BME280;28147;47.520;18.920;2023-04-23T03:47:47;98182.38;;;14.47;45.55
42519;BME280;28147;47.520;18.920;2023-04-23T03:50:13;98177.00;;;14.42;46.22
42519;BME280;28147;47.520;18.920;2023-04-23T03:52:39;98183.56;;;14.03;46.95
42519;BME280;28147;47.520;18.920;2023-04-23T03:55:05;98180.84;;;14.61;44.39
42519;BME280;28147;47.520;18.920;2023-04-23T03:57:31;98170.56;;;14.32;44.32
42519;BME280;28147;47.520;18.920;2023-04-23T03:59:57;98173.78;;;14.34;44.58
42519;BME280;28147;47.520;18.920;2023-04-23T04:02:22;98176.44;;;14.29;46.02
42519;BME280;28147;47.520;18.920;2023-04-23T04:04:48;98171.13;;;14.45;45.99
42519;BME280;28147;47.520;18.920;2023-04-23T04:07:16;98172.78;;;14.56;45.90
42519;BME280;28147;47.520;18.920;2023-04-23T04:09:41;98174.88;;;14.44;46.07
42519;BME280;28147;47.520;18.920;2023-04-23T04:12:07;98182.59;;;14.35;46.59
42519;BME280;28147;47.520;18.920;2023-04-23T04:14:32;98175.13;;;14.37;47.00
42519;BME280;28147;47.520;18.920;2023-04-23T04:16:58;98182.44;;;14.57;46.63
42519;BME280;28147;47.520;18.920;2023-04-23T04:19:23;98189.66;;;14.56;46.62
42519;BME280;28147;47.520;18.920;2023-04-23T04:21:49;98179.44;;;14.48;47.54
42519;BME280;28147;47.520;18.920;2023-04-23T04:24:16;98185.94;;;14.68;47.34
42519;BME280;28147;47.520;18.920;2023-04-23T04:26:42;98183.84;;;14.90;46.53
42519;BME280;28147;47.520;18.920;2023-04-23T04:29:08;98180.34;;;15.10;45.33
42519;BME280;28147;47.520;18.920;2023-04-23T04:31:34;98192.16;;;14.94;45.01
42519;BME280;28147;47.520;18.920;2023-04-23T04:34:00;98188.94;;;15.32;44.77
42519;BME280;28147;47.520;18.920;2023-04-23T04:36:25;98188.66;;;15.49;45.02
42519;BME280;28147;47.520;18.920;2023-04-23T04:38:53;98184.84;;;15.86;45.13
42519;BME280;28147;47.520;18.920;2023-04-23T04:41:25;98187.16;;;16.13;44.30
42519;BME280;28147;47.520;18.920;2023-04-23T04:43:52;98187.53;;;16.56;43.31
42519;BME280;28147;47.520;18.920;2023-04-23T04:46:19;98195.69;;;16.30;43.24
42519;BME280;28147;47.520;18.920;2023-04-23T04:48:47;98182.66;;;16.58;42.82
42519;BME280;28147;47.520;18.920;2023-04-23T04:51:13;98188.53;;;16.65;42.47
42519;BME280;28147;47.520;18.920;2023-04-23T04:53:39;98192.38;;;16.98;42.14
42519;BME280;28147;47.520;18.920;2023-04-23T04:56:04;98183.34;;;17.18;41.17
42519;BME280;28147;47.520;18.920;2023-04-23T04:58:30;98192.13;;;17.29;41.40
42519;BME280;28147;47.520;18.920;2023-04-23T05:00:57;98188.38;;;17.59;41.19
42519;BME280;28147;47.520;18.920;2023-04-23T05:03:23;98199.63;;;17.61;41.61
42519;BME280;28147;47.520;18.920;2023-04-23T05:05:50;98190.31;;;17.83;41.08
42519;BME280;28147;47.520;18.920;2023-04-23T05:08:16;98194.78;;;17.92;41.10
42519;BME280;28147;47.520;18.920;2023-04-23T05:10:42;98199.88;;;17.94;41.87
42519;BME280;28147;47.520;18.920;2023-04-23T05:13:08;98199.59;;;18.19;41.98
42519;BME280;28147;47.520;18.920;2023-04-23T05:15:33;98201.38;;;18.05;42.49
42519;BME280;28147;47.520;18.920;2023-04-23T05:17:59;98204.53;;;18.55;41.25
42519;BME280;28147;47.520;18.920;2023-04-23T05:20:24;98195.69;;;18.74;41.71
42519;BME280;28147;47.520;18.920;2023-04-23T05:22:50;98191.25;;;18.83;41.74
42519;BME280;28147;47.520;18.920;2023-04-23T05:25:16;98208.00;;;18.99;42.65
42519;BME280;28147;47.520;18.920;2023-04-23T05:27:41;98197.88;;;19.09;41.72
42519;BME280;28147;47.520;18.920;2023-04-23T05:30:09;98198.88;;;19.13;41.26
42519;BME280;28147;47.520;18.920;2023-04-23T05:32:35;98202.09;;;18.35;42.68
42519;BME280;28147;47.520;18.920;2023-04-23T05:35:01;98198.56;;;17.91;43.46
42519;BME280;28147;47.520;18.920;2023-04-23T05:37:28;98206.13;;;17.89;39.42
42519;BME280;28147;47.520;18.920;2023-04-23T05:39:53;98194.97;;;18.01;39.93
42519;BME280;28147;47.520;18.920;2023-04-23T05:42:20;98198.31;;;17.88;39.98
42519;BME280;28147;47.520;18.920;2023-04-23T05:44:45;98198.63;;;17.86;40.28
42519;BME280;28147;47.520;18.920;2023-04-23T05:47:12;98201.69;;;17.74;40.70
42519;BME280;28147;47.520;18.920;2023-04-23T05:49:38;98202.94;;;18.11;39.99
42519;BME280;28147;47.520;18.920;2023-04-23T05:52:03;98204.19;;;18.19;39.89
42519;BME280;28147;47.520;18.920;2023-04-23T05:54:28;98210.59;;;18.23;39.75
42519;BME280;28147;47.520;18.920;2023-04-23T05:56:54;98205.50;;;17.97;39.42
42519;BME280;28147;47.520;18.920;2023-04-23T05:59:21;98204.22;;;17.61;39.65
42519;BME280;28147;47.520;18.920;2023-04-23T06:01:47;98209.09;;;17.59;38.92
42519;BME280;28147;47.520;18.920;2023-04-23T06:04:13;98207.72;;;17.61;38.88
42519;BME280;28147;47.520;18.920;2023-04-23T06:06:38;98207.91;;;17.70;38.67
42519;BME280;28147;47.520;18.920;2023-04-23T06:09:04;98214.94;;;17.95;38.22
42519;BME280;28147;47.520;18.920;2023-04-23T06:11:31;98211.50;;;18.13;37.27
42519;BME280;28147;47.520;18.920;2023-04-23T06:13:57;98218.53;;;18.57;37.79
42519;BME280;28147;47.520;18.920;2023-04-23T06:16:23;98220.25;;;18.72;39.46
42519;BME280;28147;47.520;18.920;2023-04-23T06:18:49;98217.16;;;18.79;39.28
42519;BME280;28147;47.520;18.920;2023-04-23T06:21:14;98220.13;;;18.58;38.65
42519;BME280;28147;47.520;18.920;2023-04-23T06:23:40;98215.28;;;19.17;37.95
42519;BME280;28147;47.520;18.920;2023-04-23T06:26:05;98230.06;;;19.19;37.82
42519;BME280;28147;47.520;18.920;2023-04-23T06:28:30;98222.16;;;19.09;38.01
42519;BME280;28147;47.520;18.920;2023-04-23T06:30:56;98223.81;;;19.05;40.31
42519;BME280;28147;47.520;18.920;2023-04-23T06:33:21;98220.25;;;19.42;38.23
42519;BME280;28147;47.520;18.920;2023-04-23T06:35:47;98222.66;;;19.77;38.19
42519;BME280;28147;47.520;18.920;2023-04-23T06:38:12;98233.50;;;19.25;39.12
42519;BME280;28147;47.520;18.920;2023-04-23T06:40:37;98227.53;;;18.71;38.66
42519;BME280;28147;47.520;18.920;2023-04-23T06:43:03;98228.63;;;18.46;39.46
42519;BME280;28147;47.520;18.920;2023-04-23T06:45:32;98229.06;;;18.78;39.76
42519;BME280;28147;47.520;18.920;2023-04-23T06:47:59;98231.13;;;19.37;39.75
42519;BME280;28147;47.520;18.920;2023-04-23T06:50:24;98227.47;;;19.80;39.69
42519;BME280;28147;47.520;18.920;2023-04-23T06:52:50;98228.59;;;19.60;37.76
42519;BME280;28147;47.520;18.920;2023-04-23T06:55:17;98235.19;;;19.21;35.61
42519;BME280;28147;47.520;18.920;2023-04-23T06:57:42;98236.31;;;20.13;35.83
42519;BME280;28147;47.520;18.920;2023-04-23T07:00:08;98237.38;;;19.71;33.00
42519;BME280;28147;47.520;18.920;2023-04-23T07:02:35;98232.78;;;19.99;33.75
42519;BME280;28147;47.520;18.920;2023-04-23T07:05:00;98232.50;;;19.86;32.67
42519;BME280;28147;47.520;18.920;2023-04-23T07:07:26;98230.22;;;20.35;33.04
42519;BME280;28147;47.520;18.920;2023-04-23T07:09:51;98231.31;;;20.61;34.06
42519;BME280;28147;47.520;18.920;2023-04-23T07:12:16;98227.91;;;20.70;31.62
42519;BME280;28147;47.520;18.920;2023-04-23T07:14:42;98223.34;;;19.68;32.29
42519;BME280;28147;47.520;18.920;2023-04-23T07:17:07;98229.53;;;20.15;32.14
42519;BME280;28147;47.520;18.920;2023-04-23T07:19:35;98217.19;;;19.82;30.48
42519;BME280;28147;47.520;18.920;2023-04-23T07:22:00;98223.09;;;20.11;31.68
42519;BME280;28147;47.520;18.920;2023-04-23T07:24:26;98218.69;;;20.29;33.60
42519;BME280;28147;47.520;18.920;2023-04-23T07:26:52;98226.19;;;19.91;30.39
42519;BME280;28147;47.520;18.920;2023-04-23T07:29:17;98218.91;;;19.59;31.91
42519;BME280;28147;47.520;18.920;2023-04-23T07:31:43;98216.69;;;20.35;31.50
42519;BME280;28147;47.520;18.920;2023-04-23T07:34:08;98224.44;;;19.67;29.69
42519;BME280;28147;47.520;18.920;2023-04-23T07:36:34;98222.78;;;20.40;30.51
42519;BME280;28147;47.520;18.920;2023-04-23T07:39:00;98222.59;;;20.09;29.10
42519;BME280;28147;47.520;18.920;2023-04-23T07:41:25;98228.63;;;20.61;30.11
42519;BME280;28147;47.520;18.920;2023-04-23T07:43:51;98228.09;;;20.32;29.37
42519;BME280;28147;47.520;18.920;2023-04-23T07:46:16;98226.00;;;20.42;30.16
42519;BME280;28147;47.520;18.920;2023-04-23T07:48:42;98220.59;;;20.29;29.47
42519;BME280;28147;47.520;18.920;2023-04-23T07:51:07;98221.88;;;20.73;29.11
42519;BME280;28147;47.520;18.920;2023-04-23T07:53:34;98226.13;;;20.51;29.32
42519;BME280;28147;47.520;18.920;2023-04-23T07:55:59;98229.34;;;20.53;29.91
42519;BME280;28147;47.520;18.920;2023-04-23T07:58:25;98225.31;;;20.51;29.38
42519;BME280;28147;47.520;18.920;2023-04-23T08:00:51;98229.09;;;21.36;29.29
42519;BME280;28147;47.520;18.920;2023-04-23T08:03:16;98221.97;;;20.68;29.08
42519;BME280;28147;47.520;18.920;2023-04-23T08:05:41;98221.00;;;21.00;28.89
42519;BME280;28147;47.520;18.920;2023-04-23T08:08:09;98226.00;;;21.06;30.32
42519;BME280;28147;47.520;18.920;2023-04-23T08:10:35;98221.94;;;20.81;28.76
42519;BME280;28147;47.520;18.920;2023-04-23T08:13:01;98216.50;;;21.62;27.98
42519;BME280;28147;47.520;18.920;2023-04-23T08:15:26;98222.66;;;21.32;28.28
42519;BME280;28147;47.520;18.920;2023-04-23T08:17:52;98220.88;;;21.27;28.63
42519;BME280;28147;47.520;18.920;2023-04-23T08:20:17;98223.06;;;20.80;29.25
42519;BME280;28147;47.520;18.920;2023-04-23T08:22:42;98213.09;;;21.79;28.91
42519;BME280;28147;47.520;18.920;2023-04-23T08:25:08;98210.28;;;22.24;28.26
42519;BME280;28147;47.520;18.920;2023-04-23T08:27:34;98217.50;;;22.46;27.19
42519;BME280;28147;47.520;18.920;2023-04-23T08:30:00;98207.06;;;22.14;27.82
42519;BME280;28147;47.520;18.920;2023-04-23T08:32:25;98211.44;;;22.32;27.89
42519;BME280;28147;47.520;18.920;2023-04-23T08:34:50;98217.13;;;22.22;27.15
42519;BME280;28147;47.520;18.920;2023-04-23T08:37:16;98217.84;;;22.45;27.47
42519;BME280;28147;47.520;18.920;2023-04-23T08:39:41;98207.31;;;22.61;26.69
42519;BME280;28147;47.520;18.920;2023-04-23T08:42:10;98215.63;;;22.64;27.25
42519;BME280;28147;47.520;18.920;2023-04-23T08:44:40;98215.94;;;22.54;26.31
42519;BME280;28147;47.520;18.920;2023-04-23T08:47:09;98210.47;;;22.28;25.68
42519;BME280;28147;47.520;18.920;2023-04-23T08:49:36;98203.34;;;22.09;26.32
42519;BME280;28147;47.520;18.920;2023-04-23T08:52:16;98198.72;;;22.10;26.38
42519;BME280;28147;47.520;18.920;2023-04-23T08:54:48;98200.19;;;22.99;25.69
42519;BME280;28147;47.520;18.920;2023-04-23T08:57:15;98199.72;;;23.23;25.29
42519;BME280;28147;47.520;18.920;2023-04-23T08:59:42;98198.59;;;23.16;25.82
42519;BME280;28147;47.520;18.920;2023-04-23T09:02:08;98195.59;;;22.17;27.17
42519;BME280;28147;47.520;18.920;2023-04-23T09:04:37;98195.59;;;23.00;25.70
42519;BME280;28147;47.520;18.920;2023-04-23T09:07:04;98196.22;;;22.14;27.14
42519;BME280;28147;47.520;18.920;2023-04-23T09:09:32;98200.31;;;22.51;25.83
42519;BME280;28147;47.520;18.920;2023-04-23T09:11:58;98189.59;;;22.46;26.82
42519;BME280;28147;47.520;18.920;2023-04-23T09:14:24;98197.00;;;23.06;27.21
42519;BME280;28147;47.520;18.920;2023-04-23T09:16:51;98200.00;;;22.70;26.14
42519;BME280;28147;47.520;18.920;2023-04-23T09:19:17;98183.13;;;24.19;25.18
42519;BME280;28147;47.520;18.920;2023-04-23T09:21:44;98190.91;;;23.18;25.87
42519;BME280;28147;47.520;18.920;2023-04-23T09:24:11;98197.75;;;22.54;25.27
42519;BME280;28147;47.520;18.920;2023-04-23T09:26:44;98182.56;;;23.40;25.65
42519;BME280;28147;47.520;18.920;2023-04-23T09:29:15;98187.63;;;22.20;26.54
42519;BME280;28147;47.520;18.920;2023-04-23T09:31:48;98181.34;;;22.94;27.17
42519;BME280;28147;47.520;18.920;2023-04-23T09:34:15;98184.31;;;24.39;25.41
42519;BME280;28147;47.520;18.920;2023-04-23T09:36:44;98184.06;;;22.94;25.23
42519;BME280;28147;47.520;18.920;2023-04-23T09:39:14;98180.22;;;23.94;25.03
42519;BME280;28147;47.520;18.920;2023-04-23T09:41:40;98180.88;;;23.83;24.08
42519;BME280;28147;47.520;18.920;2023-04-23T09:44:06;98180.81;;;23.44;24.84
42519;BME280;28147;47.520;18.920;2023-04-23T09:46:38;98180.22;;;23.13;25.52
42519;BME280;28147;47.520;18.920;2023-04-23T09:49:05;98180.84;;;23.27;24.89
42519;BME280;28147;47.520;18.920;2023-04-23T09:51:38;98176.91;;;24.18;23.66
42519;BME280;28147;47.520;18.920;2023-04-23T09:54:10;98172.00;;;24.41;23.75
42519;BME280;28147;47.520;18.920;2023-04-23T09:56:36;98168.38;;;23.26;24.72
42519;BME280;28147;47.520;18.920;2023-04-23T09:59:01;98172.00;;;23.47;25.20
42519;BME280;28147;47.520;18.920;2023-04-23T10:01:28;98169.72;;;23.11;23.83
42519;BME280;28147;47.520;18.920;2023-04-23T10:03:54;98171.88;;;22.57;24.05
42519;BME280;28147;47.520;18.920;2023-04-23T10:06:26;98163.28;;;22.90;23.75
42519;BME280;28147;47.520;18.920;2023-04-23T10:08:55;98156.56;;;24.16;22.66
42519;BME280;28147;47.520;18.920;2023-04-23T10:11:23;98161.72;;;24.09;23.27
42519;BME280;28147;47.520;18.920;2023-04-23T10:13:49;98157.34;;;24.75;22.80
42519;BME280;28147;47.520;18.920;2023-04-23T10:16:15;98141.38;;;25.53;21.64
42519;BME280;28147;47.520;18.920;2023-04-23T10:18:42;98143.78;;;23.87;20.43
42519;BME280;28147;47.520;18.920;2023-04-23T10:21:10;98161.38;;;22.55;21.61
42519;BME280;28147;47.520;18.920;2023-04-23T10:23:37;98156.16;;;23.58;21.20
42519;BME280;28147;47.520;18.920;2023-04-23T10:26:04;98145.97;;;24.23;21.50
42519;BME280;28147;47.520;18.920;2023-04-23T10:28:32;98133.88;;;24.83;21.67
42519;BME280;28147;47.520;18.920;2023-04-23T10:30:58;98133.50;;;24.22;21.34
42519;BME280;28147;47.520;18.920;2023-04-23T10:33:25;98142.53;;;23.02;21.72
42519;BME280;28147;47.520;18.920;2023-04-23T10:35:55;98141.06;;;23.31;20.65
42519;BME280;28147;47.520;18.920;2023-04-23T10:38:21;98139.84;;;23.67;22.13
42519;BME280;28147;47.520;18.920;2023-04-23T10:40:49;98134.56;;;23.79;21.86
42519;BME280;28147;47.520;18.920;2023-04-23T10:43:17;98127.44;;;24.88;21.79
42519;BME280;28147;47.520;18.920;2023-04-23T10:45:43;98125.75;;;24.33;22.06
42519;BME280;28147;47.520;18.920;2023-04-23T10:48:08;98131.34;;;24.36;20.54
42519;BME280;28147;47.520;18.920;2023-04-23T10:50:35;98133.28;;;23.59;21.71
42519;BME280;28147;47.520;18.920;2023-04-23T10:53:01;98122.56;;;24.10;22.15
42519;BME280;28147;47.520;18.920;2023-04-23T10:55:30;98128.31;;;24.08;21.42
42519;BME280;28147;47.520;18.920;2023-04-23T10:58:05;98126.56;;;24.03;21.08
42519;BME280;28147;47.520;18.920;2023-04-23T11:00:45;98123.41;;;23.54;20.82
42519;BME280;28147;47.520;18.920;2023-04-23T11:03:30;98127.69;;;23.73;21.22
42519;BME280;28147;47.520;18.920;2023-04-23T11:06:00;98126.50;;;24.21;20.40
42519;BME280;28147;47.520;18.920;2023-04-23T11:08:28;98122.94;;;24.71;20.50
42519;BME280;28147;47.520;18.920;2023-04-23T11:11:00;98122.56;;;24.01;21.64
42519;BME280;28147;47.520;18.920;2023-04-23T11:13:26;98125.47;;;23.58;22.53
42519;BME280;28147;47.520;18.920;2023-04-23T11:16:15;98122.81;;;23.40;22.13
42519;BME280;28147;47.520;18.920;2023-04-23T11:21:20;98111.53;;;24.78;20.54
42519;BME280;28147;47.520;18.920;2023-04-23T11:23:45;98117.22;;;24.43;21.62
42519;BME280;28147;47.520;18.920;2023-04-23T11:26:15;98112.97;;;24.03;20.08
42519;BME280;28147;47.520;18.920;2023-04-23T11:28:42;98119.84;;;23.71;21.33
42519;BME280;28147;47.520;18.920;2023-04-23T11:31:08;98122.50;;;23.89;20.94
42519;BME280;28147;47.520;18.920;2023-04-23T11:33:35;98120.28;;;23.82;20.62
42519;BME280;28147;47.520;18.920;2023-04-23T11:36:04;98105.09;;;24.94;18.91
42519;BME280;28147;47.520;18.920;2023-04-23T11:38:30;98103.38;;;24.27;20.11
42519;BME280;28147;47.520;18.920;2023-04-23T11:41:01;98106.88;;;24.78;21.20
42519;BME280;28147;47.520;18.920;2023-04-23T11:43:26;98106.22;;;24.60;19.32
42519;BME280;28147;47.520;18.920;2023-04-23T11:45:54;98101.75;;;24.76;19.38
42519;BME280;28147;47.520;18.920;2023-04-23T11:48:19;98101.03;;;24.46;21.05
42519;BME280;28147;47.520;18.920;2023-04-23T11:50:45;98097.03;;;24.65;19.87
42519;BME280;28147;47.520;18.920;2023-04-23T11:53:10;98092.88;;;24.67;19.93
42519;BME280;28147;47.520;18.920;2023-04-23T11:55:36;98090.94;;;24.47;19.93
42519;BME280;28147;47.520;18.920;2023-04-23T11:58:08;98094.34;;;24.44;19.57
42519;BME280;28147;47.520;18.920;2023-04-23T12:00:34;98093.31;;;24.69;18.76
42519;BME280;28147;47.520;18.920;2023-04-23T12:03:01;98092.38;;;23.64;19.60
42519;BME280;28147;47.520;18.920;2023-04-23T12:05:34;98090.94;;;23.96;19.98
42519;BME280;28147;47.520;18.920;2023-04-23T12:08:14;98075.50;;;24.09;19.87
42519;BME280;28147;47.520;18.920;2023-04-23T12:10:49;98086.00;;;23.60;19.63
42519;BME280;28147;47.520;18.920;2023-04-23T12:13:17;98084.19;;;23.73;19.42
42519;BME280;28147;47.520;18.920;2023-04-23T12:16:03;98083.41;;;23.72;19.97
42519;BME280;28147;47.520;18.920;2023-04-23T12:18:30;98078.50;;;22.75;19.73
42519;BME280;28147;47.520;18.920;2023-04-23T12:21:07;98072.38;;;23.69;21.82
42519;BME280;28147;47.520;18.920;2023-04-23T12:23:32;98068.47;;;23.87;19.78
42519;BME280;28147;47.520;18.920;2023-04-23T12:26:00;98069.38;;;23.15;19.87
42519;BME280;28147;47.520;18.920;2023-04-23T12:28:27;98061.81;;;23.97;19.82
42519;BME280;28147;47.520;18.920;2023-04-23T12:30:58;98068.16;;;24.10;20.08
42519;BME280;28147;47.520;18.920;2023-04-23T12:33:28;98060.22;;;24.46;20.15
42519;BME280;28147;47.520;18.920;2023-04-23T12:35:54;98052.94;;;24.09;21.08
42519;BME280;28147;47.520;18.920;2023-04-23T12:38:27;98053.28;;;24.28;22.26
42519;BME280;28147;47.520;18.920;2023-04-23T12:40:54;98049.13;;;24.10;20.54
42519;BME280;28147;47.520;18.920;2023-04-23T12:43:20;98041.16;;;23.75;21.44
42519;BME280;28147;47.520;18.920;2023-04-23T12:45:46;98045.00;;;23.36;22.04
42519;BME280;28147;47.520;18.920;2023-04-23T12:48:12;98046.84;;;23.91;22.08
42519;BME280;28147;47.520;18.920;2023-04-23T12:50:38;98045.06;;;23.18;22.04